createdAt,value
2018-12-17T00:00:43.764Z,82.60
2018-12-17T00:01:47.157Z,82.60
2018-12-17T00:02:50.412Z,82.70
2018-12-17T00:03:53.648Z,82.60
2018-12-17T00:04:56.886Z,82.50
2018-12-17T00:06:00.178Z,82.50
2018-12-17T00:07:03.702Z,82.50
2018-12-17T00:08:07.279Z,82.50
2018-12-17T00:09:10.463Z,82.50
2018-12-17T00:10:13.707Z,82.50
2018-12-17T00:11:16.999Z,82.40
2018-12-17T00:12:20.396Z,82.40
2018-12-17T00:13:23.613Z,82.40
2018-12-17T00:14:26.852Z,82.40
2018-12-17T00:15:30.113Z,82.40
2018-12-17T00:16:33.370Z,82.40
2018-12-17T00:17:36.660Z,82.40
2018-12-17T00:18:39.893Z,82.40
2018-12-17T00:19:43.163Z,82.40
2018-12-17T00:20:46.419Z,82.50
2018-12-17T00:21:49.636Z,82.40
2018-12-17T00:22:52.897Z,82.40
2018-12-17T00:23:56.122Z,82.40
2018-12-17T00:24:59.451Z,82.40
2018-12-17T00:26:02.929Z,82.50
2018-12-17T00:27:06.239Z,82.40
2018-12-17T00:28:09.497Z,82.40
2018-12-17T00:29:12.803Z,82.40
2018-12-17T00:30:16.135Z,82.30
2018-12-17T00:31:19.376Z,82.30
2018-12-17T00:32:22.606Z,82.30
2018-12-17T00:33:25.852Z,82.20
2018-12-17T00:34:29.088Z,82.30
2018-12-17T00:35:32.341Z,83.00
2018-12-17T00:36:35.593Z,82.30
2018-12-17T00:37:38.837Z,82.30
2018-12-17T00:38:42.063Z,82.20
2018-12-17T00:39:45.314Z,82.30
2018-12-17T00:40:48.582Z,82.30
2018-12-17T00:41:51.873Z,82.30
2018-12-17T00:42:55.109Z,82.20
2018-12-17T00:43:58.341Z,82.30
2018-12-17T00:45:01.578Z,82.20
2018-12-17T00:46:04.921Z,82.10
2018-12-17T00:47:08.218Z,82.10
2018-12-17T00:48:11.544Z,82.10
2018-12-17T00:49:14.794Z,82.10
2018-12-17T00:50:18.130Z,82.20
2018-12-17T00:51:21.763Z,82.20
2018-12-17T00:52:25.075Z,82.30
2018-12-17T00:53:28.355Z,82.10
2018-12-17T00:54:31.642Z,82.10
2018-12-17T00:55:34.894Z,82.20
2018-12-17T00:56:38.172Z,82.10
2018-12-17T00:57:41.464Z,82.10
2018-12-17T00:58:44.711Z,82.00
2018-12-17T00:59:48.034Z,82.00
2018-12-17T01:00:51.305Z,82.00
2018-12-17T01:01:54.542Z,81.90
2018-12-17T01:02:59.680Z,81.90
2018-12-17T01:04:04.823Z,81.90
2018-12-17T01:05:08.167Z,82.00
2018-12-17T01:06:11.418Z,82.00
2018-12-17T01:07:14.692Z,82.00
2018-12-17T01:08:17.983Z,82.00
2018-12-17T01:09:21.211Z,82.00
2018-12-17T01:10:24.450Z,82.00
2018-12-17T01:11:27.674Z,81.90
2018-12-17T01:12:30.901Z,82.00
2018-12-17T01:13:34.257Z,82.00
2018-12-17T01:14:37.500Z,81.90
2018-12-17T01:15:40.735Z,81.90
2018-12-17T01:16:43.992Z,81.90
2018-12-17T01:17:47.226Z,81.90
2018-12-17T01:18:50.603Z,81.90
2018-12-17T01:19:53.914Z,81.90
2018-12-17T01:20:57.185Z,81.90
2018-12-17T01:22:00.529Z,81.80
2018-12-17T01:23:03.768Z,81.80
2018-12-17T01:24:07.142Z,81.90
2018-12-17T01:25:10.426Z,81.80
2018-12-17T01:26:13.717Z,81.80
2018-12-17T01:27:16.968Z,81.90
2018-12-17T01:28:22.279Z,81.90
2018-12-17T01:29:25.511Z,81.90
2018-12-17T01:30:28.729Z,81.90
2018-12-17T01:31:32.000Z,81.80
2018-12-17T01:32:35.633Z,81.80
2018-12-17T01:33:38.860Z,81.80
2018-12-17T01:34:42.158Z,81.80
2018-12-17T01:35:45.460Z,81.80
2018-12-17T01:36:48.716Z,81.80
2018-12-17T01:37:52.003Z,81.90
2018-12-17T01:38:55.265Z,81.80
2018-12-17T01:39:58.511Z,81.80
2018-12-17T01:41:01.800Z,81.80
2018-12-17T01:42:05.132Z,81.90
2018-12-17T01:43:08.419Z,81.90
2018-12-17T01:44:11.654Z,81.90
2018-12-17T01:45:15.147Z,81.90
2018-12-17T01:46:18.395Z,81.90
2018-12-17T01:47:21.621Z,81.90
2018-12-17T01:48:24.862Z,81.80
2018-12-17T01:49:28.108Z,81.80
2018-12-17T01:50:31.360Z,81.80
2018-12-17T01:51:34.689Z,81.80
2018-12-17T01:52:38.043Z,81.80
2018-12-17T01:53:41.279Z,81.80
2018-12-17T01:54:44.522Z,81.80
2018-12-17T01:55:47.764Z,81.80
2018-12-17T01:56:51.008Z,81.80
2018-12-17T01:57:54.288Z,81.90
2018-12-17T01:58:57.529Z,81.80
2018-12-17T02:00:00.809Z,81.80
2018-12-17T02:01:04.012Z,81.90
2018-12-17T02:02:07.353Z,82.50
2018-12-17T02:03:16.547Z,81.90
2018-12-17T02:04:25.665Z,81.90
2018-12-17T02:05:35.706Z,81.90
2018-12-17T02:06:38.982Z,81.50
2018-12-17T02:07:42.223Z,81.90
2018-12-17T02:08:45.529Z,81.90
2018-12-17T02:09:48.753Z,81.80
2018-12-17T02:10:52.136Z,81.80
2018-12-17T02:11:55.380Z,81.80
2018-12-17T02:12:58.700Z,81.90
2018-12-17T02:14:02.051Z,82.00
2018-12-17T02:15:05.782Z,82.10
2018-12-17T02:16:09.008Z,82.00
2018-12-17T02:17:12.432Z,82.10
2018-12-17T02:18:15.650Z,82.10
2018-12-17T02:19:18.904Z,82.10
2018-12-17T02:20:22.158Z,81.90
2018-12-17T02:21:25.474Z,81.80
2018-12-17T02:22:28.708Z,81.90
2018-12-17T02:23:32.044Z,81.80
2018-12-17T02:24:35.352Z,81.90
2018-12-17T02:25:38.602Z,81.90
2018-12-17T02:26:41.875Z,81.90
2018-12-17T02:27:45.098Z,81.90
2018-12-17T02:28:48.348Z,82.00
2018-12-17T02:29:51.651Z,82.10
2018-12-17T02:30:54.875Z,82.20
2018-12-17T02:31:58.336Z,82.30
2018-12-17T02:33:01.587Z,82.30
2018-12-17T02:34:04.800Z,82.30
2018-12-17T02:35:08.164Z,82.40
2018-12-17T02:36:11.399Z,82.50
2018-12-17T02:37:14.627Z,82.50
2018-12-17T02:38:17.917Z,82.40
2018-12-17T02:39:21.133Z,82.40
2018-12-17T02:40:24.391Z,82.40
2018-12-17T02:41:27.652Z,82.50
2018-12-17T02:42:30.909Z,82.40
2018-12-17T02:43:34.687Z,82.40
2018-12-17T02:44:38.022Z,82.30
2018-12-17T02:45:41.251Z,82.40
2018-12-17T02:46:44.534Z,82.20
2018-12-17T02:47:47.783Z,82.20
2018-12-17T02:48:51.014Z,82.30
2018-12-17T02:49:54.308Z,82.30
2018-12-17T02:50:57.534Z,82.20
2018-12-17T02:52:00.791Z,82.20
2018-12-17T02:53:04.035Z,82.20
2018-12-17T02:54:07.314Z,82.20
2018-12-17T02:55:10.568Z,82.10
2018-12-17T02:56:13.817Z,82.20
2018-12-17T02:57:17.061Z,82.20
2018-12-17T02:58:20.332Z,82.10
2018-12-17T02:59:23.556Z,82.20
2018-12-17T03:00:32.636Z,82.30
2018-12-17T03:01:41.935Z,82.10
2018-12-17T03:02:51.258Z,82.10
2018-12-17T03:03:54.498Z,82.10
2018-12-17T03:04:57.748Z,82.10
2018-12-17T03:06:01.007Z,82.10
2018-12-17T03:07:04.308Z,82.10
2018-12-17T03:08:07.598Z,82.10
2018-12-17T03:09:10.861Z,82.10
2018-12-17T03:10:14.080Z,82.00
2018-12-17T03:11:17.403Z,81.90
2018-12-17T03:12:20.639Z,81.90
2018-12-17T03:13:23.880Z,81.90
2018-12-17T03:14:27.237Z,81.80
2018-12-17T03:15:30.641Z,81.80
2018-12-17T03:16:33.978Z,81.90
2018-12-17T03:17:37.212Z,81.90
2018-12-17T03:18:40.448Z,81.80
2018-12-17T03:19:43.720Z,81.80
2018-12-17T03:20:46.969Z,81.80
2018-12-17T03:21:50.184Z,81.80
2018-12-17T03:22:53.529Z,81.80
2018-12-17T03:23:56.781Z,81.70
2018-12-17T03:25:00.262Z,81.70
2018-12-17T03:26:03.624Z,81.70
2018-12-17T03:27:06.871Z,81.60
2018-12-17T03:28:10.091Z,81.50
2018-12-17T03:29:13.325Z,81.40
2018-12-17T03:30:16.646Z,81.40
2018-12-17T03:31:19.895Z,81.40
2018-12-17T03:32:23.119Z,81.40
2018-12-17T03:33:26.421Z,81.50
2018-12-17T03:34:29.650Z,81.50
2018-12-17T03:35:32.967Z,81.50
2018-12-17T03:36:36.287Z,81.50
2018-12-17T03:37:39.530Z,81.40
2018-12-17T03:38:42.868Z,81.60
2018-12-17T03:39:46.133Z,81.70
2018-12-17T03:40:49.523Z,81.80
2018-12-17T03:41:52.819Z,82.00
2018-12-17T03:42:56.065Z,81.90
2018-12-17T03:43:59.307Z,82.00
2018-12-17T03:45:02.734Z,82.00
2018-12-17T03:46:05.993Z,82.10
2018-12-17T03:47:09.226Z,82.10
2018-12-17T03:48:12.479Z,82.20
2018-12-17T03:49:15.725Z,82.20
2018-12-17T03:50:18.962Z,82.30
2018-12-17T03:51:22.227Z,82.30
2018-12-17T03:52:25.490Z,82.40
2018-12-17T03:53:28.744Z,82.60
2018-12-17T03:54:31.983Z,82.60
2018-12-17T03:55:35.296Z,82.60
2018-12-17T03:56:38.500Z,82.50
2018-12-17T03:57:41.767Z,82.60
2018-12-17T03:58:45.067Z,82.60
2018-12-17T03:59:48.292Z,82.60
2018-12-17T04:00:51.517Z,82.60
2018-12-17T04:01:55.563Z,82.60
2018-12-17T04:02:58.813Z,82.60
2018-12-17T04:04:02.380Z,82.60
2018-12-17T04:05:05.742Z,82.70
2018-12-17T04:06:08.979Z,82.70
2018-12-17T04:07:12.218Z,82.80
2018-12-17T04:08:15.447Z,82.80
2018-12-17T04:09:18.720Z,82.80
2018-12-17T04:10:21.952Z,82.80
2018-12-17T04:11:25.168Z,82.80
2018-12-17T04:12:28.432Z,82.80
2018-12-17T04:13:31.684Z,82.90
2018-12-17T04:14:34.958Z,82.90
2018-12-17T04:15:38.456Z,82.90
2018-12-17T04:16:41.696Z,83.00
2018-12-17T04:17:44.931Z,82.90
2018-12-17T04:18:48.335Z,82.80
2018-12-17T04:19:51.705Z,82.90
2018-12-17T04:20:54.953Z,82.80
2018-12-17T04:21:58.252Z,82.70
2018-12-17T04:23:01.521Z,82.80
2018-12-17T04:24:04.842Z,82.60
2018-12-17T04:25:08.089Z,82.60
2018-12-17T04:26:11.522Z,82.50
2018-12-17T04:27:14.802Z,82.60
2018-12-17T04:28:18.012Z,82.50
2018-12-17T04:29:21.272Z,82.50
2018-12-17T04:30:24.519Z,82.60
2018-12-17T04:31:27.781Z,82.40
2018-12-17T04:32:31.023Z,82.40
2018-12-17T04:33:34.253Z,82.40
2018-12-17T04:34:37.462Z,82.40
2018-12-17T04:35:40.690Z,82.40
2018-12-17T04:36:44.051Z,82.30
2018-12-17T04:37:47.335Z,82.50
2018-12-17T04:38:50.707Z,82.00
2018-12-17T04:39:54.139Z,81.90
2018-12-17T04:40:57.412Z,82.00
2018-12-17T04:42:00.656Z,82.00
2018-12-17T04:43:03.953Z,82.10
2018-12-17T04:44:07.254Z,82.10
2018-12-17T04:45:10.484Z,82.10
2018-12-17T04:46:13.888Z,82.10
2018-12-17T04:47:17.134Z,82.10
2018-12-17T04:48:20.369Z,82.00
2018-12-17T04:49:23.604Z,82.60
2018-12-17T04:50:26.852Z,81.70
2018-12-17T04:51:30.182Z,81.80
2018-12-17T04:52:33.511Z,81.80
2018-12-17T04:53:36.762Z,81.60
2018-12-17T04:54:43.333Z,81.70
2018-12-17T04:55:46.642Z,81.60
2018-12-17T04:56:49.870Z,81.50
2018-12-17T04:57:53.270Z,81.50
2018-12-17T04:58:56.507Z,81.50
2018-12-17T04:59:59.753Z,81.50
2018-12-17T05:01:03.051Z,81.40
2018-12-17T05:02:06.284Z,81.50
2018-12-17T05:03:09.542Z,81.50
2018-12-17T05:04:12.764Z,81.50
2018-12-17T05:05:16.013Z,81.40
2018-12-17T05:06:19.286Z,81.20
2018-12-17T05:07:22.519Z,81.20
2018-12-17T05:08:25.838Z,81.20
2018-12-17T05:09:29.070Z,81.30
2018-12-17T05:10:32.458Z,81.00
2018-12-17T05:11:35.707Z,80.90
2018-12-17T05:12:39.008Z,80.90
2018-12-17T05:13:42.254Z,81.00
2018-12-17T05:14:45.536Z,81.90
2018-12-17T05:15:48.838Z,81.00
2018-12-17T05:16:52.322Z,81.00
2018-12-17T05:17:55.627Z,80.90
2018-12-17T05:18:58.844Z,81.00
2018-12-17T05:20:02.137Z,81.80
2018-12-17T05:21:05.369Z,81.10
2018-12-17T05:22:08.683Z,81.20
2018-12-17T05:23:11.927Z,81.10
2018-12-17T05:24:15.539Z,81.20
2018-12-17T05:25:18.909Z,81.10
2018-12-17T05:26:22.152Z,81.10
2018-12-17T05:27:25.407Z,81.20
2018-12-17T05:28:28.693Z,81.10
2018-12-17T05:29:31.935Z,81.00
2018-12-17T05:30:35.165Z,81.10
2018-12-17T05:31:38.710Z,80.90
2018-12-17T05:32:41.977Z,80.70
2018-12-17T05:33:45.338Z,80.70
2018-12-17T05:34:48.545Z,80.70
2018-12-17T05:35:51.782Z,80.70
2018-12-17T05:36:55.017Z,80.70
2018-12-17T05:37:58.624Z,80.80
2018-12-17T05:39:01.866Z,80.70
2018-12-17T05:40:06.510Z,80.70
2018-12-17T05:41:09.746Z,80.70
2018-12-17T05:42:13.691Z,80.70
2018-12-17T05:43:17.009Z,80.70
2018-12-17T05:44:20.268Z,80.60
2018-12-17T05:45:23.500Z,80.60
2018-12-17T05:46:26.850Z,80.60
2018-12-17T05:47:30.085Z,80.60
2018-12-17T05:48:33.334Z,80.60
2018-12-17T05:49:36.596Z,80.50
2018-12-17T05:50:39.816Z,80.40
2018-12-17T05:51:43.147Z,80.30
2018-12-17T05:52:46.377Z,80.30
2018-12-17T05:53:49.626Z,80.20
2018-12-17T05:54:53.018Z,80.50
2018-12-17T05:55:56.269Z,80.00
2018-12-17T05:56:59.499Z,79.90
2018-12-17T05:58:02.775Z,79.90
2018-12-17T05:59:07.262Z,79.90
2018-12-17T06:00:10.561Z,79.90
2018-12-17T06:01:13.969Z,80.00
2018-12-17T06:02:17.206Z,80.00
2018-12-17T06:03:20.455Z,80.00
2018-12-17T06:04:23.697Z,80.00
2018-12-17T06:05:26.953Z,80.10
2018-12-17T06:06:30.284Z,80.20
2018-12-17T06:07:33.555Z,80.20
2018-12-17T06:08:37.006Z,80.30
2018-12-17T06:09:40.249Z,80.30
2018-12-17T06:10:44.112Z,81.00
2018-12-17T06:11:47.392Z,80.80
2018-12-17T06:12:50.657Z,80.10
2018-12-17T06:13:53.966Z,80.10
2018-12-17T06:14:57.258Z,80.10
2018-12-17T06:16:00.528Z,80.10
2018-12-17T06:17:03.767Z,80.10
2018-12-17T06:18:07.044Z,80.10
2018-12-17T06:19:10.280Z,80.20
2018-12-17T06:20:13.539Z,80.20
2018-12-17T06:21:16.766Z,80.10
2018-12-17T06:22:19.997Z,80.10
2018-12-17T06:23:23.317Z,80.20
2018-12-17T06:24:26.552Z,80.10
2018-12-17T06:25:29.797Z,80.10
2018-12-17T06:26:33.315Z,80.10
2018-12-17T06:27:38.513Z,80.00
2018-12-17T06:28:41.945Z,79.90
2018-12-17T06:29:45.204Z,79.90
2018-12-17T06:30:48.476Z,79.90
2018-12-17T06:31:51.781Z,79.80
2018-12-17T06:32:55.110Z,79.70
2018-12-17T06:33:58.399Z,79.60
2018-12-17T06:35:01.720Z,79.60
2018-12-17T06:36:04.971Z,79.50
2018-12-17T06:37:08.218Z,79.60
2018-12-17T06:38:11.479Z,79.70
2018-12-17T06:39:14.880Z,79.70
2018-12-17T06:40:18.464Z,79.60
2018-12-17T06:41:21.721Z,79.70
2018-12-17T06:42:24.994Z,79.80
2018-12-17T06:43:28.225Z,79.90
2018-12-17T06:44:31.475Z,79.90
2018-12-17T06:45:34.735Z,80.00
2018-12-17T06:46:38.066Z,80.10
2018-12-17T06:47:41.315Z,80.10
2018-12-17T06:48:44.586Z,80.30
2018-12-17T06:49:48.603Z,80.40
2018-12-17T06:50:51.872Z,80.40
2018-12-17T06:51:55.287Z,80.50
2018-12-17T06:52:58.516Z,80.40
2018-12-17T06:54:02.018Z,80.50
2018-12-17T06:55:06.169Z,80.50
2018-12-17T06:56:09.531Z,80.50
2018-12-17T06:57:12.817Z,80.50
2018-12-17T06:58:16.236Z,80.60
2018-12-17T06:59:19.445Z,80.70
2018-12-17T07:00:22.704Z,80.80
2018-12-17T07:01:26.009Z,80.80
2018-12-17T07:02:29.276Z,80.90
2018-12-17T07:03:32.500Z,81.00
2018-12-17T07:04:35.733Z,81.10
2018-12-17T07:05:38.974Z,81.20
2018-12-17T07:06:42.245Z,81.40
2018-12-17T07:07:45.486Z,81.50
2018-12-17T07:08:48.803Z,81.50
2018-12-17T07:09:52.056Z,81.70
2018-12-17T07:10:55.348Z,81.80
2018-12-17T07:11:58.629Z,81.90
2018-12-17T07:13:01.880Z,81.90
2018-12-17T07:14:05.138Z,82.10
2018-12-17T07:15:09.222Z,82.10
2018-12-17T07:16:12.547Z,82.20
2018-12-17T07:17:15.807Z,82.30
2018-12-17T07:18:19.042Z,82.30
2018-12-17T07:19:22.290Z,82.40
2018-12-17T07:20:25.569Z,82.40
2018-12-17T07:21:28.778Z,82.40
2018-12-17T07:22:32.065Z,82.40
2018-12-17T07:23:35.284Z,82.40
2018-12-17T07:24:38.525Z,82.50
2018-12-17T07:25:41.801Z,82.50
2018-12-17T07:26:45.114Z,82.40
2018-12-17T07:27:48.492Z,82.50
2018-12-17T07:28:51.719Z,82.60
2018-12-17T07:29:54.984Z,82.60
2018-12-17T07:30:58.209Z,82.60
2018-12-17T07:32:01.464Z,82.70
2018-12-17T07:33:04.704Z,82.80
2018-12-17T07:34:08.009Z,82.80
2018-12-17T07:35:11.285Z,82.70
2018-12-17T07:36:14.530Z,82.70
2018-12-17T07:37:17.875Z,82.80
2018-12-17T07:38:21.199Z,82.70
2018-12-17T07:39:24.516Z,82.70
2018-12-17T07:40:27.743Z,82.60
2018-12-17T07:41:30.990Z,82.40
2018-12-17T07:42:34.214Z,82.40
2018-12-17T07:43:38.262Z,82.40
2018-12-17T07:44:41.658Z,82.30
2018-12-17T07:45:44.907Z,83.10
2018-12-17T07:46:48.136Z,82.30
2018-12-17T07:47:51.462Z,82.40
2018-12-17T07:48:55.034Z,82.30
2018-12-17T07:49:58.405Z,82.30
2018-12-17T07:51:01.688Z,82.30
2018-12-17T07:52:05.007Z,82.30
2018-12-17T07:53:08.248Z,82.30
2018-12-17T07:54:11.553Z,82.30
2018-12-17T07:55:14.832Z,82.30
2018-12-17T07:56:18.151Z,82.30
2018-12-17T07:57:21.364Z,82.30
2018-12-17T07:58:24.607Z,82.30
2018-12-17T07:59:27.871Z,82.30
2018-12-17T08:00:31.127Z,82.10
2018-12-17T08:01:34.415Z,82.10
2018-12-17T08:02:37.657Z,82.10
2018-12-17T08:03:41.098Z,82.20
2018-12-17T08:04:44.992Z,83.00
2018-12-17T08:05:48.237Z,82.20
2018-12-17T08:06:51.613Z,82.10
2018-12-17T08:07:54.906Z,82.10
2018-12-17T08:08:58.193Z,82.10
2018-12-17T08:10:01.521Z,81.80
2018-12-17T08:11:04.893Z,82.10
2018-12-17T08:12:08.213Z,82.20
2018-12-17T08:13:11.714Z,82.30
2018-12-17T08:14:14.952Z,82.40
2018-12-17T08:15:18.244Z,82.50
2018-12-17T08:16:21.480Z,82.60
2018-12-17T08:17:24.729Z,82.70
2018-12-17T08:18:27.960Z,83.50
2018-12-17T08:19:31.224Z,82.80
2018-12-17T08:20:34.623Z,83.60
2018-12-17T08:21:37.900Z,82.90
2018-12-17T08:22:41.179Z,82.80
2018-12-17T08:23:44.447Z,82.80
2018-12-17T08:24:47.700Z,82.80
2018-12-17T08:25:50.961Z,82.70
2018-12-17T08:26:54.215Z,82.50
2018-12-17T08:27:57.488Z,82.40
2018-12-17T08:29:00.731Z,82.30
2018-12-17T08:30:05.456Z,82.40
2018-12-17T08:31:08.708Z,82.40
2018-12-17T08:32:11.950Z,82.30
2018-12-17T08:33:15.232Z,82.40
2018-12-17T08:34:18.467Z,82.40
2018-12-17T08:35:21.697Z,82.30
2018-12-17T08:36:25.011Z,82.20
2018-12-17T08:37:28.275Z,82.30
2018-12-17T08:38:31.532Z,82.30
2018-12-17T08:39:34.754Z,82.30
2018-12-17T08:40:38.007Z,82.10
2018-12-17T08:41:41.284Z,81.90
2018-12-17T08:42:45.520Z,81.70
2018-12-17T08:43:48.777Z,81.50
2018-12-17T08:44:52.017Z,81.60
2018-12-17T08:45:55.261Z,81.50
2018-12-17T08:46:58.529Z,81.50
2018-12-17T08:48:01.834Z,81.50
2018-12-17T08:49:05.103Z,81.50
2018-12-17T08:50:08.717Z,81.50
2018-12-17T08:51:11.991Z,81.50
2018-12-17T08:52:15.220Z,81.60
2018-12-17T08:53:18.461Z,81.40
2018-12-17T08:54:21.726Z,81.50
2018-12-17T08:55:25.130Z,81.60
2018-12-17T08:56:28.351Z,81.70
2018-12-17T08:57:37.772Z,81.90
2018-12-17T08:58:36.811Z,81.90
2018-12-17T08:59:40.064Z,81.70
2018-12-17T09:00:43.900Z,81.70
2018-12-17T09:01:47.141Z,81.70
2018-12-17T09:02:50.484Z,81.60
2018-12-17T09:03:53.733Z,81.60
2018-12-17T09:04:56.980Z,81.80
2018-12-17T09:06:00.687Z,81.70
2018-12-17T09:07:04.046Z,81.60
2018-12-17T09:08:07.385Z,81.60
2018-12-17T09:09:10.643Z,81.30
2018-12-17T09:10:13.936Z,81.20
2018-12-17T09:11:17.263Z,81.30
2018-12-17T09:12:20.482Z,81.30
2018-12-17T09:13:23.719Z,81.30
2018-12-17T09:14:26.960Z,81.30
2018-12-17T09:15:30.279Z,81.40
2018-12-17T09:16:33.539Z,81.40
2018-12-17T09:17:36.818Z,81.40
2018-12-17T09:18:40.094Z,81.30
2018-12-17T09:19:43.383Z,81.30
2018-12-17T09:20:46.645Z,81.20
2018-12-17T09:21:49.891Z,81.30
2018-12-17T09:22:53.128Z,81.50
2018-12-17T09:23:56.371Z,81.60
2018-12-17T09:24:59.640Z,81.70
2018-12-17T09:26:03.052Z,81.90
2018-12-17T09:27:06.259Z,81.90
2018-12-17T09:28:09.496Z,82.00
2018-12-17T09:29:12.740Z,82.10
2018-12-17T09:30:18.442Z,82.00
2018-12-17T09:31:21.278Z,82.10
2018-12-17T09:32:24.506Z,82.00
2018-12-17T09:33:28.737Z,81.90
2018-12-17T09:34:32.274Z,81.90
2018-12-17T09:35:35.532Z,81.70
2018-12-17T09:36:38.786Z,81.60
2018-12-17T09:37:42.024Z,81.50
2018-12-17T09:38:45.303Z,81.40
2018-12-17T09:39:48.556Z,81.50
2018-12-17T09:40:53.160Z,81.60
2018-12-17T09:41:57.165Z,81.70
2018-12-17T09:44:05.882Z,81.00
2018-12-17T09:45:09.323Z,81.30
2018-12-17T09:46:13.779Z,80.90
2018-12-17T09:47:17.031Z,80.40
2018-12-17T09:48:20.269Z,80.60
2018-12-17T09:49:26.829Z,80.40
2018-12-17T09:50:30.770Z,80.60
2018-12-17T09:51:33.982Z,80.90
2018-12-17T09:52:37.206Z,81.10
2018-12-17T09:53:40.452Z,81.30
2018-12-17T09:54:43.686Z,81.30
2018-12-17T09:55:48.055Z,81.30
2018-12-17T09:56:51.301Z,81.50
2018-12-17T09:57:55.307Z,81.70
2018-12-17T09:58:58.558Z,81.70
2018-12-17T10:00:01.794Z,81.50
2018-12-17T10:01:05.822Z,81.80
2018-12-17T10:02:09.152Z,81.80
2018-12-17T10:03:12.378Z,81.90
2018-12-17T10:04:15.618Z,81.80
2018-12-17T10:05:18.933Z,81.90
2018-12-17T10:06:22.180Z,81.90
2018-12-17T10:07:30.400Z,81.90
2018-12-17T10:08:35.962Z,82.20
2018-12-17T10:09:39.433Z,82.10
2018-12-17T10:10:42.651Z,82.20
2018-12-17T10:11:46.020Z,82.20
2018-12-17T10:12:49.305Z,82.20
2018-12-17T10:13:52.660Z,81.90
2018-12-17T10:14:57.968Z,81.80
2018-12-17T10:16:01.337Z,81.70
2018-12-17T10:17:04.802Z,81.90
2018-12-17T10:18:09.190Z,81.50
2018-12-17T10:19:13.689Z,81.60
2018-12-17T10:20:17.875Z,81.60
2018-12-17T10:21:21.080Z,84.00
2018-12-17T10:22:25.522Z,81.70
2018-12-17T10:23:28.782Z,81.70
2018-12-17T10:24:33.004Z,81.70
2018-12-17T10:25:36.290Z,81.70
2018-12-17T10:26:39.530Z,81.90
2018-12-17T10:27:44.149Z,81.80
2018-12-17T10:28:48.066Z,81.70
2018-12-17T10:29:51.680Z,81.70
2018-12-17T10:30:54.910Z,81.40
2018-12-17T10:31:58.133Z,81.60
2018-12-17T10:33:01.385Z,82.10
2018-12-17T10:34:04.651Z,81.60
2018-12-17T10:35:09.251Z,81.40
2018-12-17T10:36:12.612Z,81.30
2018-12-17T10:37:16.670Z,81.20
2018-12-17T10:38:19.910Z,81.10
2018-12-17T10:39:26.850Z,81.00
2018-12-17T10:40:30.143Z,81.10
2018-12-17T10:41:33.591Z,81.10
2018-12-17T10:42:41.604Z,81.10
2018-12-17T10:43:44.856Z,81.00
2018-12-17T10:44:48.172Z,80.90
2018-12-17T10:45:57.575Z,80.80
2018-12-17T10:47:01.390Z,80.70
2018-12-17T10:48:04.667Z,80.20
2018-12-17T10:49:08.072Z,79.80
2018-12-17T10:50:11.479Z,79.70
2018-12-17T10:51:14.726Z,79.70
2018-12-17T10:52:18.701Z,79.60
2018-12-17T10:53:22.267Z,79.60
2018-12-17T10:54:25.676Z,79.60
2018-12-17T10:55:29.009Z,79.60
2018-12-17T10:56:32.822Z,79.60
2018-12-17T10:57:37.025Z,79.50
2018-12-17T10:58:40.872Z,79.50
2018-12-17T10:59:44.165Z,79.30
2018-12-17T11:00:53.149Z,79.30
2018-12-17T11:02:13.824Z,79.10
2018-12-17T11:03:19.301Z,79.00
2018-12-17T11:04:24.440Z,78.70
2018-12-17T11:05:27.766Z,78.80
2018-12-17T11:06:31.153Z,78.80
2018-12-17T11:07:34.691Z,78.60
2018-12-17T11:08:37.955Z,77.00
2018-12-17T11:09:41.218Z,78.50
2018-12-17T11:10:44.460Z,77.90
2018-12-17T11:11:47.691Z,77.90
2018-12-17T11:12:51.084Z,77.80
2018-12-17T11:13:54.342Z,77.30
2018-12-17T11:14:57.642Z,77.70
2018-12-17T11:16:00.880Z,77.80
2018-12-17T11:17:05.811Z,77.80
2018-12-17T11:18:09.232Z,77.80
2018-12-17T11:19:12.512Z,78.00
2018-12-17T11:20:15.759Z,78.00
2018-12-17T11:21:19.958Z,77.70
2018-12-17T11:22:23.204Z,78.60
2018-12-17T11:23:26.453Z,77.90
2018-12-17T11:24:29.750Z,77.70
2018-12-17T11:25:35.720Z,77.80
2018-12-17T11:26:38.964Z,78.00
2018-12-17T11:27:42.227Z,78.20
2018-12-17T11:28:46.490Z,78.10
2018-12-17T11:29:49.767Z,78.20
2018-12-17T11:30:53.647Z,78.60
2018-12-17T11:32:00.437Z,78.80
2018-12-17T11:33:05.199Z,78.80
2018-12-17T11:34:08.575Z,78.70
2018-12-17T11:35:11.928Z,78.80
2018-12-17T11:36:18.079Z,78.80
2018-12-17T11:37:21.597Z,79.00
2018-12-17T11:38:25.234Z,79.00
2018-12-17T11:39:28.466Z,78.80
2018-12-17T11:40:31.708Z,78.80
2018-12-17T11:41:35.030Z,78.80
2018-12-17T11:42:38.649Z,79.10
2018-12-17T11:43:43.968Z,79.20
2018-12-17T11:44:47.082Z,79.30
2018-12-17T11:45:50.507Z,79.40
2018-12-17T11:46:54.434Z,79.40
2018-12-17T11:47:59.388Z,79.50
2018-12-17T11:49:03.745Z,79.40
2018-12-17T11:50:11.077Z,79.50
2018-12-17T11:51:15.786Z,79.70
2018-12-17T11:52:19.260Z,79.60
2018-12-17T11:53:22.519Z,79.60
2018-12-17T11:54:25.829Z,79.70
2018-12-17T11:55:29.122Z,79.70
2018-12-17T11:56:38.152Z,80.40
2018-12-17T11:57:53.726Z,79.60
2018-12-17T11:58:57.274Z,79.40
2018-12-17T12:00:00.643Z,79.50
2018-12-17T12:01:04.206Z,79.50
2018-12-17T12:02:07.509Z,79.60
2018-12-17T12:03:11.195Z,79.70
2018-12-17T12:04:14.430Z,79.80
2018-12-17T12:05:18.052Z,79.90
2018-12-17T12:06:21.332Z,79.90
2018-12-17T12:07:24.767Z,79.90
2018-12-17T12:08:28.003Z,80.00
2018-12-17T12:09:33.630Z,80.80
2018-12-17T12:10:37.558Z,79.90
2018-12-17T12:11:40.825Z,79.80
2018-12-17T12:12:44.144Z,79.80
2018-12-17T12:13:47.778Z,79.90
2018-12-17T12:14:51.005Z,79.90
2018-12-17T12:15:54.273Z,80.30
2018-12-17T12:16:57.627Z,80.00
2018-12-17T12:18:00.975Z,80.30
2018-12-17T12:19:04.310Z,80.40
2018-12-17T12:20:08.989Z,80.70
2018-12-17T12:21:12.655Z,80.70
2018-12-17T12:22:21.842Z,80.70
2018-12-17T12:23:25.583Z,80.90
2018-12-17T12:24:30.700Z,80.90
2018-12-17T12:25:34.882Z,81.10
2018-12-17T12:26:39.016Z,81.30
2018-12-17T12:27:42.412Z,81.10
2018-12-17T12:28:47.209Z,81.20
2018-12-17T12:29:50.822Z,81.20
2018-12-17T12:31:00.335Z,81.00
2018-12-17T12:31:59.779Z,81.00
2018-12-17T12:33:03.172Z,80.90
2018-12-17T12:34:06.506Z,81.50
2018-12-17T12:35:11.367Z,80.60
2018-12-17T12:36:15.248Z,80.80
2018-12-17T12:37:18.517Z,80.80
2018-12-17T12:38:22.418Z,80.80
2018-12-17T12:39:25.994Z,80.70
2018-12-17T12:40:29.237Z,80.70
2018-12-17T12:41:32.536Z,80.10
2018-12-17T12:42:35.819Z,80.00
2018-12-17T12:43:39.123Z,79.80
2018-12-17T12:44:42.462Z,80.00
2018-12-17T12:45:45.746Z,79.90
2018-12-17T12:46:49.086Z,80.10
2018-12-17T12:47:52.331Z,80.00
2018-12-17T12:48:55.548Z,80.00
2018-12-17T12:49:58.822Z,80.20
2018-12-17T12:51:02.125Z,81.00
2018-12-17T12:52:05.395Z,80.00
2018-12-17T12:53:08.738Z,80.20
2018-12-17T12:54:12.013Z,80.20
2018-12-17T12:55:15.255Z,80.10
2018-12-17T12:56:18.497Z,80.40
2018-12-17T12:57:21.759Z,80.40
2018-12-17T12:58:25.006Z,80.50
2018-12-17T12:59:28.267Z,80.60
2018-12-17T13:00:31.554Z,80.80
2018-12-17T13:01:34.827Z,80.80
2018-12-17T13:02:38.206Z,80.90
2018-12-17T13:03:41.614Z,80.80
2018-12-17T13:04:44.933Z,81.10
2018-12-17T13:05:48.168Z,81.10
2018-12-17T13:06:51.408Z,81.10
2018-12-17T13:07:54.693Z,81.50
2018-12-17T13:08:57.967Z,81.60
2018-12-17T13:10:01.251Z,82.10
2018-12-17T13:11:04.482Z,82.50
2018-12-17T13:12:07.715Z,82.90
2018-12-17T13:13:11.030Z,82.90
2018-12-17T13:14:14.258Z,83.00
2018-12-17T13:15:17.520Z,83.60
2018-12-17T13:16:20.741Z,83.90
2018-12-17T13:17:28.121Z,83.70
2018-12-17T13:18:31.374Z,83.70
2018-12-17T13:19:34.708Z,84.10
2018-12-17T13:20:37.989Z,84.10
2018-12-17T13:21:41.386Z,84.20
2018-12-17T13:22:44.624Z,84.00
2018-12-17T13:23:47.887Z,83.70
2018-12-17T13:24:51.137Z,83.30
2018-12-17T13:25:54.567Z,82.80
2018-12-17T13:26:58.140Z,81.90
2018-12-17T13:28:01.368Z,81.40
2018-12-17T13:29:04.606Z,80.80
2018-12-17T13:30:08.545Z,80.20
2018-12-17T13:31:14.823Z,79.40
2018-12-17T13:32:17.106Z,78.20
2018-12-17T13:33:20.367Z,77.90
2018-12-17T13:34:23.644Z,76.80
2018-12-17T13:35:26.898Z,77.00
2018-12-17T13:36:30.246Z,77.10
2018-12-17T13:37:33.536Z,77.30
2018-12-17T13:38:36.768Z,77.10
2018-12-17T13:39:40.008Z,77.10